Meteo Giornale » Osservazioni meteo Italia » Pratica Di Mare

ore: 02:55 - Osservazioni Meteo Pratica Di Mare
Lat. 41° 39' N Lon. 12° 27' E Alt. 6 metri s.l.m.

sereno Europe/Rome

14 °C

Sereno

Temp. 24 Ore

14 °C

18 °C

Est

96.2 Km/h

Dew point 12 °C

Umidità 87 %

Visibilità  10 Km

Il sole sorge alle ore 05:42

Il sole tramonta alle ore 20:31

Data e Ora Cielo e Fenomeni T °C DP °C Um. % Pres. hPa Vis. km Vento km/h
Oggi h: 02:55 sereno Sereno 14 12 87 1016 10 E 96.2
Oggi h: 01:55 sereno Sereno 14 12 87 1016 10 E 16.7
Oggi h: 00:55 sereno Sereno 14 13 93 1016 10 E 16.7
Ieri h: 23:55 poco_nuvoloso Poco Nuvoloso 15 13 87 1016 10 E 13
Ieri h: 22:55 poco_nuvoloso Poco Nuvoloso 15 13 87 1016 10 E/SE 11.1
Ieri h: 21:55 nuvoloso Nuvoloso 15 13 87 1016 10 E/SE 9.3
Ieri h: 20:55 nuvoloso Nuvoloso 16 14 87 1016 10 S/SE 11.1
Ieri h: 19:55 nuvoloso Nuvoloso 17 15 88 1015 10 S/SE 18.5
Ieri h: 18:55 nuvoloso Nuvoloso 17 13 77 1015 10 S/SE 20.3
Ieri h: 17:55 nuvoloso Nuvoloso 17 10 63 1015 10 S/SE 20.3
Ieri h: 15:55 molto_nuvoloso Molto Nuvoloso 18 12 67 1015 10 S 16.7
Ieri h: 14:55 nuvoloso Nuvoloso 18 12 67 1015 10 S/SO 16.7
Ieri h: 13:55 nuvoloso Nuvoloso 18 12 67 1015 10 S 14.8
Ieri h: 12:55 molto_nuvoloso Molto Nuvoloso 16 11 72 1014 10 SO 20.3
Ieri h: 11:55 nuvoloso Nuvoloso 18 13 72 1014 10 O/SO 20.3
Ieri h: 10:55 nuvoloso Nuvoloso 17 12 72 1013 10 O/SO 16.7
Ieri h: 09:55 molto_nuvoloso Molto Nuvoloso 17 12 72 1013 10 O/SO 18.5
Ieri h: 08:55 molto_nuvoloso Molto Nuvoloso 16 12 77 1012 10 O/SO 18.5
Ieri h: 07:55 molto_nuvoloso Molto Nuvoloso 15 13 87 1012 10 O/SO 18.5
Ieri h: 06:55 molto_nuvoloso Molto Nuvoloso 15 13 87 1011 10 O/SO 14.8
Ieri h: 05:55 molto_nuvoloso Molto Nuvoloso 15 13 87 1011 10 O 16.7
Ieri h: 04:55 molto_nuvoloso Molto Nuvoloso 15 13 87 1011 10 O 14.8
Ieri h: 03:55 coperto_pioggia Pioggia Debole 14 12 87 1011 10 O/SO 20.3